River & Lake Conditions

Stages:
  • Latest Observation

    Normal Stage: 9.11 ft2.8 m

    Flow: 120 kcfs
    Impacts: Above 8.7 to 9.2 feet, the Corps will raise the gates out of the water, allowing for open river conditions. This corresponds to a discharge of approximately 110,000 cfs.
  • Stages

Stage Date Flow
6.30 ft1.92 mForecast 08/06/2014 01:00 am 82.500 kcfs
6.30 ft1.92 mForecast 08/05/2014 07:00 pm 82.500 kcfs
6.40 ft1.95 mForecast 08/05/2014 01:00 pm 83.700 kcfs
6.40 ft1.95 mForecast 08/05/2014 07:00 am 83.700 kcfs
6.40 ft1.95 mForecast 08/05/2014 01:00 am 83.700 kcfs
6.50 ft1.98 mForecast 08/04/2014 07:00 pm 84.900 kcfs
6.50 ft1.98 mForecast 08/04/2014 01:00 pm 84.900 kcfs
6.60 ft2.01 mForecast 08/04/2014 07:00 am 86.100 kcfs
6.60 ft2.01 mForecast 08/04/2014 01:00 am 86.100 kcfs
6.70 ft2.04 mForecast 08/03/2014 07:00 pm 87.300 kcfs
6.80 ft2.07 mForecast 08/03/2014 01:00 pm 88.500 kcfs
6.80 ft2.07 mForecast 08/03/2014 07:00 am 88.500 kcfs
6.90 ft2.10 mForecast 08/03/2014 01:00 am 89.800 kcfs
6.90 ft2.10 mForecast 08/02/2014 07:00 pm 89.800 kcfs
7.00 ft2.13 mForecast 08/02/2014 01:00 pm 91.000 kcfs
7.00 ft2.13 mForecast 08/02/2014 07:00 am 91.000 kcfs
7.10 ft2.16 mForecast 08/02/2014 01:00 am 92.200 kcfs
7.10 ft2.16 mForecast 08/01/2014 07:00 pm 92.200 kcfs
7.20 ft2.19 mForecast 08/01/2014 01:00 pm 93.400 kcfs
7.30 ft2.23 mForecast 08/01/2014 07:00 am 94.600 kcfs
7.40 ft2.26 mForecast 08/01/2014 01:00 am 95.800 kcfs
7.50 ft2.29 mForecast 07/31/2014 07:00 pm 97.000 kcfs
7.60 ft2.32 mForecast 07/31/2014 01:00 pm 98.200 kcfs
7.70 ft2.35 mForecast 07/31/2014 07:00 am 99.400 kcfs
7.80 ft2.38 mForecast 07/31/2014 01:00 am 101.000 kcfs
8.00 ft2.44 mForecast 07/30/2014 07:00 pm 103.000 kcfs
8.10 ft2.47 mForecast 07/30/2014 01:00 pm 105.000 kcfs
8.30 ft2.53 mForecast 07/30/2014 07:00 am 108.000 kcfs
8.60 ft2.62 mForecast 07/30/2014 01:00 am 112.000 kcfs
8.80 ft2.68 mForecast 07/29/2014 07:00 pm 115.000 kcfs
8.90 ft2.71 mForecast 07/29/2014 01:00 pm 117.000 kcfs
9.11 ft2.71 m 07/29/2014 08:00 am 120.000 kcfs
9.13 ft2.71 m 07/29/2014 06:00 am 120.000 kcfs
9.18 ft2.71 m 07/29/2014 04:00 am 121.000 kcfs
9.27 ft2.71 m 07/29/2014 02:00 am 123.000 kcfs
9.41 ft2.71 m 07/29/2014 12:00 am 125.000 kcfs
9.46 ft2.71 m 07/28/2014 10:00 pm 126.000 kcfs
9.49 ft2.71 m 07/28/2014 08:00 pm 126.000 kcfs
9.70 ft2.71 m 07/28/2014 06:00 pm 129.000 kcfs
9.74 ft2.71 m 07/28/2014 04:00 pm 130.000 kcfs
9.88 ft2.71 m 07/28/2014 02:00 pm 132.000 kcfs
9.93 ft2.71 m 07/28/2014 12:00 pm 133.000 kcfs
9.99 ft2.71 m 07/28/2014 10:00 am 134.000 kcfs
10.01 ft2.71 m 07/28/2014 08:00 am 134.000 kcfs
10.04 ft2.71 m 07/28/2014 06:00 am 135.000 kcfs
10.09 ft2.71 m 07/28/2014 04:00 am 136.000 kcfs
10.12 ft2.71 m 07/28/2014 02:00 am 136.000 kcfs
10.16 ft2.71 m 07/28/2014 12:00 am 137.000 kcfs
10.21 ft2.71 m 07/27/2014 10:00 pm 137.000 kcfs
10.28 ft2.71 m 07/27/2014 08:00 pm 138.000 kcfs
10.34 ft2.71 m 07/27/2014 06:00 pm 139.000 kcfs
10.48 ft2.71 m 07/27/2014 04:00 pm 141.000 kcfs
10.55 ft2.71 m 07/27/2014 02:00 pm 143.000 kcfs
10.73 ft2.71 m 07/27/2014 12:00 pm 145.000 kcfs
10.88 ft2.71 m 07/27/2014 10:00 am 148.000 kcfs
10.92 ft2.71 m 07/27/2014 08:00 am 148.000 kcfs
11.00 ft2.71 m 07/27/2014 06:00 am 149.000 kcfs
11.06 ft2.71 m 07/27/2014 04:00 am 150.000 kcfs
11.10 ft2.71 m 07/27/2014 02:00 am 151.000 kcfs
11.14 ft2.71 m 07/27/2014 12:00 am 151.000 kcfs
11.23 ft2.71 m 07/26/2014 08:00 pm 153.000 kcfs
11.29 ft2.71 m 07/26/2014 06:00 pm 154.000 kcfs